sensor_id;sensor_type;location;lat;lon;timestamp;temperature;humidity
27890;DHT22;15238;49.082;9.102;2023-08-07T00:00:32;12.20;99.90
27890;DHT22;15238;49.082;9.102;2023-08-07T00:02:32;12.30;99.90
27890;DHT22;15238;49.082;9.102;2023-08-07T00:04:33;12.20;99.90
27890;DHT22;15238;49.082;9.102;2023-08-07T00:06:33;12.20;99.90
27890;DHT22;15238;49.082;9.102;2023-08-07T00:08:34;12.20;99.90
27890;DHT22;15238;49.082;9.102;2023-08-07T00:10:37;12.20;99.90
27890;DHT22;15238;49.082;9.102;2023-08-07T00:12:37;12.20;99.90
27890;DHT22;15238;49.082;9.102;2023-08-07T00:14:38;12.20;99.90
27890;DHT22;15238;49.082;9.102;2023-08-07T00:16:38;12.10;99.90
27890;DHT22;15238;49.082;9.102;2023-08-07T00:18:39;12.20;99.90
27890;DHT22;15238;49.082;9.102;2023-08-07T00:20:39;12.20;99.90
27890;DHT22;15238;49.082;9.102;2023-08-07T00:22:40;12.10;99.90
27890;DHT22;15238;49.082;9.102;2023-08-07T00:24:40;12.20;99.90
27890;DHT22;15238;49.082;9.102;2023-08-07T00:26:41;12.20;99.90
27890;DHT22;15238;49.082;9.102;2023-08-07T00:28:41;12.20;99.90
27890;DHT22;15238;49.082;9.102;2023-08-07T00:32:51;12.20;99.90
27890;DHT22;15238;49.082;9.102;2023-08-07T00:34:51;12.20;99.90
27890;DHT22;15238;49.082;9.102;2023-08-07T00:36:51;12.20;99.90
27890;DHT22;15238;49.082;9.102;2023-08-07T00:38:52;12.20;99.90
27890;DHT22;15238;49.082;9.102;2023-08-07T00:40:52;12.20;99.90
27890;DHT22;15238;49.082;9.102;2023-08-07T00:42:53;12.20;99.90
27890;DHT22;15238;49.082;9.102;2023-08-07T00:44:53;12.20;99.90
27890;DHT22;15238;49.082;9.102;2023-08-07T00:46:54;12.20;99.90
27890;DHT22;15238;49.082;9.102;2023-08-07T00:48:55;12.20;99.90
27890;DHT22;15238;49.082;9.102;2023-08-07T00:50:56;12.20;99.90
27890;DHT22;15238;49.082;9.102;2023-08-07T00:52:57;12.20;99.90
27890;DHT22;15238;49.082;9.102;2023-08-07T00:54:57;12.20;99.90
27890;DHT22;15238;49.082;9.102;2023-08-07T00:57:08;12.20;99.90
27890;DHT22;15238;49.082;9.102;2023-08-07T00:59:10;12.20;99.90
27890;DHT22;15238;49.082;9.102;2023-08-07T01:01:11;12.10;99.90
27890;DHT22;15238;49.082;9.102;2023-08-07T01:03:12;12.10;99.90
27890;DHT22;15238;49.082;9.102;2023-08-07T01:05:14;12.10;99.90
27890;DHT22;15238;49.082;9.102;2023-08-07T01:07:14;12.10;99.90
27890;DHT22;15238;49.082;9.102;2023-08-07T01:09:15;12.10;99.90
27890;DHT22;15238;49.082;9.102;2023-08-07T01:13:40;12.20;99.90
27890;DHT22;15238;49.082;9.102;2023-08-07T01:15:42;12.10;99.90
27890;DHT22;15238;49.082;9.102;2023-08-07T01:17:44;12.00;99.90
27890;DHT22;15238;49.082;9.102;2023-08-07T01:19:47;12.00;99.90
27890;DHT22;15238;49.082;9.102;2023-08-07T01:21:48;12.00;99.90
27890;DHT22;15238;49.082;9.102;2023-08-07T01:23:49;12.00;99.90
27890;DHT22;15238;49.082;9.102;2023-08-07T01:25:50;12.00;99.90
27890;DHT22;15238;49.082;9.102;2023-08-07T01:28:00;12.00;99.90
27890;DHT22;15238;49.082;9.102;2023-08-07T01:30:25;12.00;99.90
27890;DHT22;15238;49.082;9.102;2023-08-07T01:32:47;12.00;99.90
27890;DHT22;15238;49.082;9.102;2023-08-07T01:34:50;12.00;99.90
27890;DHT22;15238;49.082;9.102;2023-08-07T01:36:53;12.00;99.90
27890;DHT22;15238;49.082;9.102;2023-08-07T01:38:57;12.10;99.90
27890;DHT22;15238;49.082;9.102;2023-08-07T01:40:58;12.10;99.90
27890;DHT22;15238;49.082;9.102;2023-08-07T01:42:59;12.10;99.90
27890;DHT22;15238;49.082;9.102;2023-08-07T01:45:00;12.10;99.90
27890;DHT22;15238;49.082;9.102;2023-08-07T01:47:00;12.10;99.90
27890;DHT22;15238;49.082;9.102;2023-08-07T01:49:01;12.10;99.90
27890;DHT22;15238;49.082;9.102;2023-08-07T01:51:01;12.10;99.90
27890;DHT22;15238;49.082;9.102;2023-08-07T01:53:02;12.10;99.90
27890;DHT22;15238;49.082;9.102;2023-08-07T01:55:03;12.10;99.90
27890;DHT22;15238;49.082;9.102;2023-08-07T01:57:03;12.10;99.90
27890;DHT22;15238;49.082;9.102;2023-08-07T01:59:04;12.10;99.90
27890;DHT22;15238;49.082;9.102;2023-08-07T02:01:05;12.10;99.90
27890;DHT22;15238;49.082;9.102;2023-08-07T02:03:05;12.00;99.90
27890;DHT22;15238;49.082;9.102;2023-08-07T02:05:06;12.00;99.90
27890;DHT22;15238;49.082;9.102;2023-08-07T02:07:06;12.10;99.90
27890;DHT22;15238;49.082;9.102;2023-08-07T02:09:07;12.10;99.90
27890;DHT22;15238;49.082;9.102;2023-08-07T02:11:07;12.10;99.90
27890;DHT22;15238;49.082;9.102;2023-08-07T02:13:08;12.00;99.90
27890;DHT22;15238;49.082;9.102;2023-08-07T02:15:08;12.10;99.90
27890;DHT22;15238;49.082;9.102;2023-08-07T02:17:09;12.10;99.90
27890;DHT22;15238;49.082;9.102;2023-08-07T02:19:10;12.10;99.90
27890;DHT22;15238;49.082;9.102;2023-08-07T02:21:10;12.00;99.90
27890;DHT22;15238;49.082;9.102;2023-08-07T02:23:11;12.00;99.90
27890;DHT22;15238;49.082;9.102;2023-08-07T02:25:11;12.00;99.90
27890;DHT22;15238;49.082;9.102;2023-08-07T02:27:12;12.00;99.90
27890;DHT22;15238;49.082;9.102;2023-08-07T02:29:12;12.00;99.90
27890;DHT22;15238;49.082;9.102;2023-08-07T02:31:13;12.00;99.90
27890;DHT22;15238;49.082;9.102;2023-08-07T02:33:13;12.00;99.90
27890;DHT22;15238;49.082;9.102;2023-08-07T02:35:14;12.00;99.90
27890;DHT22;15238;49.082;9.102;2023-08-07T02:37:14;12.00;99.90
27890;DHT22;15238;49.082;9.102;2023-08-07T02:39:16;12.00;99.90
27890;DHT22;15238;49.082;9.102;2023-08-07T02:41:16;12.00;99.90
27890;DHT22;15238;49.082;9.102;2023-08-07T02:43:17;12.00;99.90
27890;DHT22;15238;49.082;9.102;2023-08-07T02:45:17;12.00;99.90
27890;DHT22;15238;49.082;9.102;2023-08-07T02:47:18;12.00;99.90
27890;DHT22;15238;49.082;9.102;2023-08-07T02:49:18;12.00;99.90
27890;DHT22;15238;49.082;9.102;2023-08-07T02:51:18;12.00;99.90
27890;DHT22;15238;49.082;9.102;2023-08-07T02:53:19;12.00;99.90
27890;DHT22;15238;49.082;9.102;2023-08-07T02:55:19;12.00;99.90
27890;DHT22;15238;49.082;9.102;2023-08-07T02:57:20;12.00;99.90
27890;DHT22;15238;49.082;9.102;2023-08-07T02:59:20;12.00;99.90
27890;DHT22;15238;49.082;9.102;2023-08-07T03:01:21;12.00;99.90
27890;DHT22;15238;49.082;9.102;2023-08-07T03:03:21;12.00;99.90
27890;DHT22;15238;49.082;9.102;2023-08-07T03:05:22;11.90;99.90
27890;DHT22;15238;49.082;9.102;2023-08-07T03:07:22;12.00;99.90
27890;DHT22;15238;49.082;9.102;2023-08-07T03:09:23;12.00;99.90
27890;DHT22;15238;49.082;9.102;2023-08-07T03:11:23;11.90;99.90
27890;DHT22;15238;49.082;9.102;2023-08-07T03:13:25;11.90;99.90
27890;DHT22;15238;49.082;9.102;2023-08-07T03:15:25;12.00;99.90
27890;DHT22;15238;49.082;9.102;2023-08-07T03:17:26;12.00;99.90
27890;DHT22;15238;49.082;9.102;2023-08-07T03:19:26;12.00;99.90
27890;DHT22;15238;49.082;9.102;2023-08-07T03:21:27;12.00;99.90
27890;DHT22;15238;49.082;9.102;2023-08-07T03:23:28;11.90;99.90
27890;DHT22;15238;49.082;9.102;2023-08-07T03:25:28;11.90;99.90
27890;DHT22;15238;49.082;9.102;2023-08-07T03:27:29;11.90;99.90
27890;DHT22;15238;49.082;9.102;2023-08-07T03:29:29;11.90;99.90
27890;DHT22;15238;49.082;9.102;2023-08-07T03:31:30;11.90;99.90
27890;DHT22;15238;49.082;9.102;2023-08-07T03:33:30;11.90;99.90
27890;DHT22;15238;49.082;9.102;2023-08-07T03:35:31;11.90;99.90
27890;DHT22;15238;49.082;9.102;2023-08-07T03:37:31;11.90;99.90
27890;DHT22;15238;49.082;9.102;2023-08-07T03:39:32;11.90;99.90
27890;DHT22;15238;49.082;9.102;2023-08-07T03:41:32;11.90;99.90
27890;DHT22;15238;49.082;9.102;2023-08-07T03:43:33;11.90;99.90
27890;DHT22;15238;49.082;9.102;2023-08-07T03:45:34;11.90;99.90
27890;DHT22;15238;49.082;9.102;2023-08-07T03:47:35;12.00;99.90
27890;DHT22;15238;49.082;9.102;2023-08-07T03:49:35;12.00;99.90
27890;DHT22;15238;49.082;9.102;2023-08-07T03:51:36;11.90;99.90
27890;DHT22;15238;49.082;9.102;2023-08-07T03:53:37;11.90;99.90
27890;DHT22;15238;49.082;9.102;2023-08-07T03:55:37;11.90;99.90
27890;DHT22;15238;49.082;9.102;2023-08-07T03:57:38;12.00;99.90
27890;DHT22;15238;49.082;9.102;2023-08-07T03:59:38;11.90;99.90
27890;DHT22;15238;49.082;9.102;2023-08-07T04:01:39;11.90;99.90
27890;DHT22;15238;49.082;9.102;2023-08-07T04:03:39;11.90;99.90
27890;DHT22;15238;49.082;9.102;2023-08-07T04:05:40;12.00;99.90
27890;DHT22;15238;49.082;9.102;2023-08-07T04:07:40;11.90;99.90
27890;DHT22;15238;49.082;9.102;2023-08-07T04:09:41;11.90;99.90
27890;DHT22;15238;49.082;9.102;2023-08-07T04:11:41;11.90;99.90
27890;DHT22;15238;49.082;9.102;2023-08-07T04:13:42;11.90;99.90
27890;DHT22;15238;49.082;9.102;2023-08-07T04:15:42;11.90;99.90
27890;DHT22;15238;49.082;9.102;2023-08-07T04:17:43;11.90;99.90
27890;DHT22;15238;49.082;9.102;2023-08-07T04:19:43;11.90;99.90
27890;DHT22;15238;49.082;9.102;2023-08-07T04:21:44;11.90;99.90
27890;DHT22;15238;49.082;9.102;2023-08-07T04:23:44;11.90;99.90
27890;DHT22;15238;49.082;9.102;2023-08-07T04:25:46;11.90;99.90
27890;DHT22;15238;49.082;9.102;2023-08-07T04:27:47;11.80;99.90
27890;DHT22;15238;49.082;9.102;2023-08-07T04:29:48;11.80;99.90
27890;DHT22;15238;49.082;9.102;2023-08-07T04:31:48;11.80;99.90
27890;DHT22;15238;49.082;9.102;2023-08-07T04:33:49;11.80;99.90
27890;DHT22;15238;49.082;9.102;2023-08-07T04:35:49;11.80;99.90
27890;DHT22;15238;49.082;9.102;2023-08-07T04:37:49;11.80;99.90
27890;DHT22;15238;49.082;9.102;2023-08-07T04:39:50;11.70;99.90
27890;DHT22;15238;49.082;9.102;2023-08-07T04:41:50;11.80;99.90
27890;DHT22;15238;49.082;9.102;2023-08-07T04:43:51;11.80;99.90
27890;DHT22;15238;49.082;9.102;2023-08-07T04:45:52;11.80;99.90
27890;DHT22;15238;49.082;9.102;2023-08-07T04:47:53;11.80;99.90
27890;DHT22;15238;49.082;9.102;2023-08-07T04:49:53;11.90;99.90
27890;DHT22;15238;49.082;9.102;2023-08-07T04:51:54;11.80;99.90
27890;DHT22;15238;49.082;9.102;2023-08-07T04:53:54;11.80;99.90
27890;DHT22;15238;49.082;9.102;2023-08-07T04:55:57;11.80;99.90
27890;DHT22;15238;49.082;9.102;2023-08-07T04:57:57;11.90;99.90
27890;DHT22;15238;49.082;9.102;2023-08-07T04:59:58;11.90;99.90
27890;DHT22;15238;49.082;9.102;2023-08-07T05:01:58;11.90;99.90
27890;DHT22;15238;49.082;9.102;2023-08-07T05:03:59;11.90;99.90
27890;DHT22;15238;49.082;9.102;2023-08-07T05:06:00;11.90;99.90
27890;DHT22;15238;49.082;9.102;2023-08-07T05:08:00;11.90;99.90
27890;DHT22;15238;49.082;9.102;2023-08-07T05:10:02;11.90;99.90
27890;DHT22;15238;49.082;9.102;2023-08-07T05:12:03;11.90;99.90
27890;DHT22;15238;49.082;9.102;2023-08-07T05:14:03;11.90;99.90
27890;DHT22;15238;49.082;9.102;2023-08-07T05:16:04;11.90;99.90
27890;DHT22;15238;49.082;9.102;2023-08-07T05:18:04;11.90;99.90
27890;DHT22;15238;49.082;9.102;2023-08-07T05:20:05;11.90;99.90
27890;DHT22;15238;49.082;9.102;2023-08-07T05:22:06;11.90;99.90
27890;DHT22;15238;49.082;9.102;2023-08-07T05:24:06;11.90;99.90
27890;DHT22;15238;49.082;9.102;2023-08-07T05:26:07;12.00;99.90
27890;DHT22;15238;49.082;9.102;2023-08-07T05:28:08;11.90;99.90
27890;DHT22;15238;49.082;9.102;2023-08-07T05:30:09;11.90;99.90
27890;DHT22;15238;49.082;9.102;2023-08-07T05:32:11;12.00;99.90
27890;DHT22;15238;49.082;9.102;2023-08-07T05:34:11;12.00;99.90
27890;DHT22;15238;49.082;9.102;2023-08-07T05:36:12;12.00;99.90
27890;DHT22;15238;49.082;9.102;2023-08-07T05:38:12;12.00;99.90
27890;DHT22;15238;49.082;9.102;2023-08-07T05:40:13;12.00;99.90
27890;DHT22;15238;49.082;9.102;2023-08-07T05:42:14;12.10;99.90
27890;DHT22;15238;49.082;9.102;2023-08-07T05:44:14;12.10;99.90
27890;DHT22;15238;49.082;9.102;2023-08-07T05:46:15;12.10;99.90
27890;DHT22;15238;49.082;9.102;2023-08-07T05:48:15;12.20;99.90
27890;DHT22;15238;49.082;9.102;2023-08-07T05:50:16;12.30;99.90
27890;DHT22;15238;49.082;9.102;2023-08-07T05:52:17;12.30;99.90
27890;DHT22;15238;49.082;9.102;2023-08-07T05:54:18;12.30;99.90
27890;DHT22;15238;49.082;9.102;2023-08-07T05:56:19;12.30;99.90
27890;DHT22;15238;49.082;9.102;2023-08-07T05:58:19;12.30;99.90
27890;DHT22;15238;49.082;9.102;2023-08-07T06:00:20;12.40;99.90
27890;DHT22;15238;49.082;9.102;2023-08-07T06:02:20;12.50;99.90
27890;DHT22;15238;49.082;9.102;2023-08-07T06:04:21;12.50;99.90
27890;DHT22;15238;49.082;9.102;2023-08-07T06:06:22;12.50;99.90
27890;DHT22;15238;49.082;9.102;2023-08-07T06:08:23;12.60;99.90
27890;DHT22;15238;49.082;9.102;2023-08-07T06:10:24;12.70;99.90
27890;DHT22;15238;49.082;9.102;2023-08-07T06:12:24;12.70;99.90
27890;DHT22;15238;49.082;9.102;2023-08-07T06:14:25;12.70;99.90
27890;DHT22;15238;49.082;9.102;2023-08-07T06:16:25;12.70;99.90
27890;DHT22;15238;49.082;9.102;2023-08-07T06:18:26;12.70;99.90
27890;DHT22;15238;49.082;9.102;2023-08-07T06:20:26;12.80;99.90
27890;DHT22;15238;49.082;9.102;2023-08-07T06:22:27;12.70;99.90
27890;DHT22;15238;49.082;9.102;2023-08-07T06:24:28;12.70;99.90
27890;DHT22;15238;49.082;9.102;2023-08-07T06:26:28;12.80;99.90
27890;DHT22;15238;49.082;9.102;2023-08-07T06:28:32;12.80;99.90
27890;DHT22;15238;49.082;9.102;2023-08-07T06:30:33;12.80;99.90
27890;DHT22;15238;49.082;9.102;2023-08-07T06:32:34;12.80;99.90
27890;DHT22;15238;49.082;9.102;2023-08-07T06:34:35;12.80;99.90
27890;DHT22;15238;49.082;9.102;2023-08-07T06:36:37;12.80;99.90
27890;DHT22;15238;49.082;9.102;2023-08-07T06:38:38;12.80;99.90
27890;DHT22;15238;49.082;9.102;2023-08-07T06:40:39;12.90;99.90
27890;DHT22;15238;49.082;9.102;2023-08-07T06:42:40;12.90;99.90
27890;DHT22;15238;49.082;9.102;2023-08-07T06:44:40;12.90;99.90
27890;DHT22;15238;49.082;9.102;2023-08-07T06:46:41;13.00;99.90
27890;DHT22;15238;49.082;9.102;2023-08-07T06:48:41;13.00;99.90
27890;DHT22;15238;49.082;9.102;2023-08-07T06:50:42;13.10;99.90
27890;DHT22;15238;49.082;9.102;2023-08-07T06:52:42;13.00;99.90
27890;DHT22;15238;49.082;9.102;2023-08-07T06:54:43;13.00;99.90
27890;DHT22;15238;49.082;9.102;2023-08-07T06:56:43;13.00;99.90
27890;DHT22;15238;49.082;9.102;2023-08-07T06:58:45;13.00;99.90
27890;DHT22;15238;49.082;9.102;2023-08-07T07:00:45;13.00;99.90
27890;DHT22;15238;49.082;9.102;2023-08-07T07:02:46;13.00;99.90
27890;DHT22;15238;49.082;9.102;2023-08-07T07:04:46;13.00;99.90
27890;DHT22;15238;49.082;9.102;2023-08-07T07:06:47;13.00;99.90
27890;DHT22;15238;49.082;9.102;2023-08-07T07:08:47;13.00;99.90
27890;DHT22;15238;49.082;9.102;2023-08-07T07:10:48;13.00;99.90
27890;DHT22;15238;49.082;9.102;2023-08-07T07:12:48;13.00;99.90
27890;DHT22;15238;49.082;9.102;2023-08-07T07:14:49;13.00;99.90
27890;DHT22;15238;49.082;9.102;2023-08-07T07:16:49;13.00;99.90
27890;DHT22;15238;49.082;9.102;2023-08-07T07:18:50;13.00;99.90
27890;DHT22;15238;49.082;9.102;2023-08-07T07:20:57;13.00;99.90
27890;DHT22;15238;49.082;9.102;2023-08-07T07:22:59;13.00;99.90
27890;DHT22;15238;49.082;9.102;2023-08-07T07:24:59;13.00;99.90
27890;DHT22;15238;49.082;9.102;2023-08-07T07:27:00;13.00;99.90
27890;DHT22;15238;49.082;9.102;2023-08-07T07:29:00;13.00;99.90
27890;DHT22;15238;49.082;9.102;2023-08-07T07:31:01;13.00;99.90
27890;DHT22;15238;49.082;9.102;2023-08-07T07:33:01;13.00;99.90
27890;DHT22;15238;49.082;9.102;2023-08-07T07:35:02;13.00;99.90
27890;DHT22;15238;49.082;9.102;2023-08-07T07:37:04;13.10;99.90
27890;DHT22;15238;49.082;9.102;2023-08-07T07:39:04;13.00;99.90
27890;DHT22;15238;49.082;9.102;2023-08-07T07:41:05;13.00;99.90
27890;DHT22;15238;49.082;9.102;2023-08-07T07:43:10;13.10;99.90
27890;DHT22;15238;49.082;9.102;2023-08-07T07:45:10;13.10;99.90
27890;DHT22;15238;49.082;9.102;2023-08-07T07:47:11;13.10;99.90
27890;DHT22;15238;49.082;9.102;2023-08-07T07:49:11;13.10;99.90
27890;DHT22;15238;49.082;9.102;2023-08-07T07:51:12;13.10;99.90
27890;DHT22;15238;49.082;9.102;2023-08-07T07:53:12;13.20;99.90
27890;DHT22;15238;49.082;9.102;2023-08-07T07:55:13;13.20;99.90
27890;DHT22;15238;49.082;9.102;2023-08-07T07:57:14;13.20;99.90
27890;DHT22;15238;49.082;9.102;2023-08-07T07:59:14;13.40;99.90
27890;DHT22;15238;49.082;9.102;2023-08-07T08:01:15;13.50;99.90
27890;DHT22;15238;49.082;9.102;2023-08-07T08:03:15;13.50;99.90
27890;DHT22;15238;49.082;9.102;2023-08-07T08:05:16;13.50;99.90
27890;DHT22;15238;49.082;9.102;2023-08-07T08:07:16;13.60;99.90
27890;DHT22;15238;49.082;9.102;2023-08-07T08:09:17;13.60;99.90
27890;DHT22;15238;49.082;9.102;2023-08-07T08:11:17;13.70;99.90
27890;DHT22;15238;49.082;9.102;2023-08-07T08:13:18;13.70;99.90
27890;DHT22;15238;49.082;9.102;2023-08-07T08:15:19;13.80;99.90
27890;DHT22;15238;49.082;9.102;2023-08-07T08:17:19;13.80;99.90
27890;DHT22;15238;49.082;9.102;2023-08-07T08:19:20;13.80;99.90
27890;DHT22;15238;49.082;9.102;2023-08-07T08:21:20;13.80;99.90
27890;DHT22;15238;49.082;9.102;2023-08-07T08:23:21;13.90;99.90
27890;DHT22;15238;49.082;9.102;2023-08-07T08:25:21;13.90;99.90
27890;DHT22;15238;49.082;9.102;2023-08-07T08:27:22;14.00;99.90
27890;DHT22;15238;49.082;9.102;2023-08-07T08:29:23;14.00;99.90
27890;DHT22;15238;49.082;9.102;2023-08-07T08:31:23;14.00;99.90
27890;DHT22;15238;49.082;9.102;2023-08-07T08:33:24;14.20;99.90
27890;DHT22;15238;49.082;9.102;2023-08-07T08:35:25;14.20;99.90
27890;DHT22;15238;49.082;9.102;2023-08-07T08:37:26;14.20;99.90
27890;DHT22;15238;49.082;9.102;2023-08-07T08:39:26;14.10;99.90
27890;DHT22;15238;49.082;9.102;2023-08-07T08:41:27;14.10;99.90
27890;DHT22;15238;49.082;9.102;2023-08-07T08:43:30;14.10;99.90
27890;DHT22;15238;49.082;9.102;2023-08-07T08:45:34;14.10;99.90
27890;DHT22;15238;49.082;9.102;2023-08-07T08:47:42;14.10;99.90
27890;DHT22;15238;49.082;9.102;2023-08-07T08:49:50;14.10;99.90
27890;DHT22;15238;49.082;9.102;2023-08-07T08:51:53;14.10;99.90
27890;DHT22;15238;49.082;9.102;2023-08-07T08:53:54;14.20;99.90
27890;DHT22;15238;49.082;9.102;2023-08-07T08:55:56;14.30;99.90
27890;DHT22;15238;49.082;9.102;2023-08-07T08:57:57;14.50;99.90
27890;DHT22;15238;49.082;9.102;2023-08-07T09:00:01;14.60;99.90
27890;DHT22;15238;49.082;9.102;2023-08-07T09:02:11;14.60;99.90
27890;DHT22;15238;49.082;9.102;2023-08-07T09:04:12;14.50;99.90
27890;DHT22;15238;49.082;9.102;2023-08-07T09:06:13;14.40;99.90
27890;DHT22;15238;49.082;9.102;2023-08-07T09:08:14;14.50;99.90
27890;DHT22;15238;49.082;9.102;2023-08-07T09:10:15;14.50;99.90
27890;DHT22;15238;49.082;9.102;2023-08-07T09:12:19;14.60;99.90
27890;DHT22;15238;49.082;9.102;2023-08-07T09:14:24;14.70;99.90
27890;DHT22;15238;49.082;9.102;2023-08-07T09:16:26;14.90;99.90
27890;DHT22;15238;49.082;9.102;2023-08-07T09:18:27;15.10;99.90
27890;DHT22;15238;49.082;9.102;2023-08-07T09:20:28;15.30;99.90
27890;DHT22;15238;49.082;9.102;2023-08-07T09:22:29;15.40;99.90
27890;DHT22;15238;49.082;9.102;2023-08-07T09:24:29;15.50;99.90
27890;DHT22;15238;49.082;9.102;2023-08-07T09:26:32;15.50;99.90
27890;DHT22;15238;49.082;9.102;2023-08-07T09:28:34;15.60;99.90
27890;DHT22;15238;49.082;9.102;2023-08-07T09:30:36;15.70;99.90
27890;DHT22;15238;49.082;9.102;2023-08-07T09:32:39;15.70;99.90
27890;DHT22;15238;49.082;9.102;2023-08-07T09:34:40;15.40;99.90
27890;DHT22;15238;49.082;9.102;2023-08-07T09:36:41;15.50;99.90
27890;DHT22;15238;49.082;9.102;2023-08-07T09:38:41;15.60;99.90
27890;DHT22;15238;49.082;9.102;2023-08-07T09:40:42;15.70;99.90
27890;DHT22;15238;49.082;9.102;2023-08-07T09:42:42;15.70;99.90
27890;DHT22;15238;49.082;9.102;2023-08-07T09:44:44;15.80;99.90
27890;DHT22;15238;49.082;9.102;2023-08-07T09:46:49;16.00;99.90
27890;DHT22;15238;49.082;9.102;2023-08-07T09:48:49;15.90;99.90
27890;DHT22;15238;49.082;9.102;2023-08-07T09:50:50;15.80;99.90
27890;DHT22;15238;49.082;9.102;2023-08-07T09:52:50;15.80;99.90
27890;DHT22;15238;49.082;9.102;2023-08-07T09:54:54;15.80;99.90
27890;DHT22;15238;49.082;9.102;2023-08-07T09:56:56;15.70;99.90
27890;DHT22;15238;49.082;9.102;2023-08-07T09:58:58;15.60;99.90
27890;DHT22;15238;49.082;9.102;2023-08-07T10:01:02;15.70;99.90
27890;DHT22;15238;49.082;9.102;2023-08-07T10:03:03;15.70;99.90
27890;DHT22;15238;49.082;9.102;2023-08-07T10:05:06;15.80;99.90
27890;DHT22;15238;49.082;9.102;2023-08-07T10:07:09;16.00;99.90
27890;DHT22;15238;49.082;9.102;2023-08-07T10:09:12;16.00;99.90
27890;DHT22;15238;49.082;9.102;2023-08-07T10:11:13;16.00;99.90
27890;DHT22;15238;49.082;9.102;2023-08-07T10:13:14;16.20;99.90
27890;DHT22;15238;49.082;9.102;2023-08-07T10:15:15;16.30;99.90
27890;DHT22;15238;49.082;9.102;2023-08-07T10:17:15;16.30;99.90
27890;DHT22;15238;49.082;9.102;2023-08-07T10:19:16;16.30;99.90
27890;DHT22;15238;49.082;9.102;2023-08-07T10:21:17;16.40;99.90
27890;DHT22;15238;49.082;9.102;2023-08-07T10:23:18;16.40;99.90
27890;DHT22;15238;49.082;9.102;2023-08-07T10:25:23;16.30;99.90
27890;DHT22;15238;49.082;9.102;2023-08-07T10:27:26;16.40;99.90
27890;DHT22;15238;49.082;9.102;2023-08-07T10:29:28;16.50;99.90
27890;DHT22;15238;49.082;9.102;2023-08-07T10:31:29;16.70;99.90
27890;DHT22;15238;49.082;9.102;2023-08-07T10:33:30;16.50;99.90
27890;DHT22;15238;49.082;9.102;2023-08-07T10:35:32;16.50;99.90
27890;DHT22;15238;49.082;9.102;2023-08-07T10:37:43;16.30;99.90
27890;DHT22;15238;49.082;9.102;2023-08-07T10:40:03;16.30;99.90
27890;DHT22;15238;49.082;9.102;2023-08-07T10:42:04;16.20;99.90
27890;DHT22;15238;49.082;9.102;2023-08-07T10:44:05;16.30;99.90
27890;DHT22;15238;49.082;9.102;2023-08-07T10:46:08;16.40;99.90
27890;DHT22;15238;49.082;9.102;2023-08-07T10:48:13;16.60;99.90
27890;DHT22;15238;49.082;9.102;2023-08-07T10:50:18;16.70;99.90
27890;DHT22;15238;49.082;9.102;2023-08-07T10:52:20;16.70;99.90
27890;DHT22;15238;49.082;9.102;2023-08-07T10:54:23;16.80;99.90
27890;DHT22;15238;49.082;9.102;2023-08-07T10:56:32;16.80;99.90
27890;DHT22;15238;49.082;9.102;2023-08-07T10:58:40;16.90;99.90
27890;DHT22;15238;49.082;9.102;2023-08-07T11:00:41;17.00;99.90
27890;DHT22;15238;49.082;9.102;2023-08-07T11:02:42;17.10;99.90
27890;DHT22;15238;49.082;9.102;2023-08-07T11:04:43;17.10;99.90
27890;DHT22;15238;49.082;9.102;2023-08-07T11:06:47;16.90;99.90
27890;DHT22;15238;49.082;9.102;2023-08-07T11:08:49;16.90;99.90
27890;DHT22;15238;49.082;9.102;2023-08-07T11:10:51;16.80;99.90
27890;DHT22;15238;49.082;9.102;2023-08-07T11:12:52;16.70;99.90
27890;DHT22;15238;49.082;9.102;2023-08-07T11:14:53;16.80;99.90
27890;DHT22;15238;49.082;9.102;2023-08-07T11:16:56;16.90;99.90
27890;DHT22;15238;49.082;9.102;2023-08-07T11:18:57;16.90;99.90
27890;DHT22;15238;49.082;9.102;2023-08-07T11:20:58;17.00;99.90
27890;DHT22;15238;49.082;9.102;2023-08-07T11:22:59;17.20;99.90
27890;DHT22;15238;49.082;9.102;2023-08-07T11:24:59;17.30;99.90
27890;DHT22;15238;49.082;9.102;2023-08-07T11:27:00;17.30;99.90
27890;DHT22;15238;49.082;9.102;2023-08-07T11:29:01;17.20;99.90
27890;DHT22;15238;49.082;9.102;2023-08-07T11:31:02;17.40;99.90
27890;DHT22;15238;49.082;9.102;2023-08-07T11:33:02;17.50;99.90
27890;DHT22;15238;49.082;9.102;2023-08-07T11:35:03;17.40;99.90
27890;DHT22;15238;49.082;9.102;2023-08-07T11:37:05;17.20;99.90
27890;DHT22;15238;49.082;9.102;2023-08-07T11:39:06;17.10;99.90
27890;DHT22;15238;49.082;9.102;2023-08-07T11:41:07;17.10;99.90
27890;DHT22;15238;49.082;9.102;2023-08-07T11:43:07;17.10;99.90
27890;DHT22;15238;49.082;9.102;2023-08-07T11:45:08;17.40;99.90
27890;DHT22;15238;49.082;9.102;2023-08-07T11:47:10;17.30;99.90
27890;DHT22;15238;49.082;9.102;2023-08-07T11:49:10;17.40;99.90
27890;DHT22;15238;49.082;9.102;2023-08-07T11:51:13;17.50;99.90
27890;DHT22;15238;49.082;9.102;2023-08-07T11:53:13;17.50;99.90
27890;DHT22;15238;49.082;9.102;2023-08-07T11:55:14;17.40;99.90
27890;DHT22;15238;49.082;9.102;2023-08-07T11:57:16;17.20;99.90
27890;DHT22;15238;49.082;9.102;2023-08-07T11:59:17;17.20;99.90
27890;DHT22;15238;49.082;9.102;2023-08-07T12:01:23;17.50;99.90
27890;DHT22;15238;49.082;9.102;2023-08-07T12:03:29;17.60;99.90
27890;DHT22;15238;49.082;9.102;2023-08-07T12:05:38;17.70;99.90
27890;DHT22;15238;49.082;9.102;2023-08-07T12:07:41;17.50;99.90
27890;DHT22;15238;49.082;9.102;2023-08-07T12:09:41;17.30;99.90
27890;DHT22;15238;49.082;9.102;2023-08-07T12:11:42;17.20;99.90
27890;DHT22;15238;49.082;9.102;2023-08-07T12:13:43;17.00;99.90
27890;DHT22;15238;49.082;9.102;2023-08-07T12:15:45;16.80;99.90
27890;DHT22;15238;49.082;9.102;2023-08-07T12:17:46;16.80;99.90
27890;DHT22;15238;49.082;9.102;2023-08-07T12:19:46;16.90;99.90
27890;DHT22;15238;49.082;9.102;2023-08-07T12:21:47;16.80;99.90
27890;DHT22;15238;49.082;9.102;2023-08-07T12:23:48;16.60;99.90
27890;DHT22;15238;49.082;9.102;2023-08-07T12:25:49;16.60;99.90
27890;DHT22;15238;49.082;9.102;2023-08-07T12:27:49;16.40;99.90
27890;DHT22;15238;49.082;9.102;2023-08-07T12:29:50;16.20;99.90
27890;DHT22;15238;49.082;9.102;2023-08-07T12:31:50;16.00;99.90
27890;DHT22;15238;49.082;9.102;2023-08-07T12:33:50;16.00;99.90
27890;DHT22;15238;49.082;9.102;2023-08-07T12:35:52;15.90;99.90
27890;DHT22;15238;49.082;9.102;2023-08-07T12:37:53;15.80;99.90
27890;DHT22;15238;49.082;9.102;2023-08-07T12:39:54;15.70;99.90
27890;DHT22;15238;49.082;9.102;2023-08-07T12:41:54;15.60;99.90
27890;DHT22;15238;49.082;9.102;2023-08-07T12:43:55;15.60;99.90
27890;DHT22;15238;49.082;9.102;2023-08-07T12:45:56;15.60;99.90
27890;DHT22;15238;49.082;9.102;2023-08-07T12:47:56;15.80;99.90
27890;DHT22;15238;49.082;9.102;2023-08-07T12:49:57;15.90;99.90